Time;durP1;ratioP1;P1;durP2;ratioP2;P2;SDS_P1;SDS_P2;PMS_P1;PMS_P2;Temp;Humidity;BMP_temperature;BMP_pressure;BME280_temperature;BME280_humidity;BME280_pressure;Samples;Min_cycle;Max_cycle;Signal;HPM_P1;HPM_P2
2023/08/12 00:00:19;;;;;;;24.42;22.40;;;19.70;99.90;;;;;;4969708;28;20070;-80
2023/08/12 00:02:45;;;;;;;8.38;6.88;;;19.70;99.90;;;;;;4969435;28;20516;-80
2023/08/12 00:05:11;;;;;;;19.40;12.02;;;19.70;99.90;;;;;;4968988;28;20046;-80
2023/08/12 00:07:38;;;;;;;11.85;9.98;;;19.60;99.90;;;;;;4968663;28;20034;-80
2023/08/12 00:10:04;;;;;;;9.93;7.25;;;19.60;99.90;;;;;;4970479;28;20089;-79
2023/08/12 00:12:35;;;;;;;15.55;14.15;;;19.60;99.90;;;;;;4953014;28;20430;-80
2023/08/12 00:15:00;;;;;;;13.20;11.02;;;19.60;99.90;;;;;;4977015;28;20039;-80
2023/08/12 00:17:26;;;;;;;10.65;9.15;;;19.50;99.90;;;;;;4989147;28;20112;-80
2023/08/12 00:19:52;;;;;;;16.15;14.75;;;19.50;99.90;;;;;;4987940;28;20094;-80
2023/08/12 00:22:18;;;;;;;7.70;6.20;;;19.50;99.90;;;;;;4987806;28;20042;-80
2023/08/12 00:24:44;;;;;;;9.88;8.88;;;19.50;99.90;;;;;;4988220;28;20504;-80
2023/08/12 00:27:11;;;;;;;17.38;15.93;;;19.50;99.90;;;;;;4988265;28;20046;-80
2023/08/12 00:29:36;;;;;;;13.52;12.27;;;19.50;99.90;;;;;;4989341;28;20104;-80
2023/08/12 00:32:02;;;;;;;11.25;10.13;;;19.50;99.90;;;;;;4987788;28;20042;-80
2023/08/12 00:34:28;;;;;;;10.63;9.68;;;19.40;99.90;;;;;;4987946;28;20134;-80
2023/08/12 00:36:54;;;;;;;11.95;10.68;;;19.40;99.90;;;;;;4971408;28;20489;-80
2023/08/12 00:39:19;;;;;;;13.13;11.63;;;19.40;99.90;;;;;;4972157;28;20076;-80
2023/08/12 00:41:45;;;;;;;11.18;9.27;;;19.40;99.90;;;;;;4989178;28;20076;-79
2023/08/12 00:44:10;;;;;;;13.70;12.45;;;19.40;99.90;;;;;;4985535;28;20052;-80
2023/08/12 00:46:39;;;;;;;20.83;19.02;;;19.30;99.90;;;;;;4968417;28;20070;-80
2023/08/12 00:49:05;;;;;;;19.77;18.17;;;19.30;99.90;;;;;;4968583;28;20093;-80
2023/08/12 00:51:31;;;;;;;14.95;13.75;;;19.30;99.90;;;;;;4967955;28;20489;-80
2023/08/12 00:53:58;;;;;;;16.13;14.77;;;19.30;99.90;;;;;;4968369;28;20054;-80
2023/08/12 00:56:25;;;;;;;20.92;19.27;;;19.30;99.90;;;;;;4968622;28;20039;-80
2023/08/12 00:58:52;;;;;;;11.63;9.57;;;19.30;99.90;;;;;;4953442;28;20137;-80
2023/08/12 01:01:18;;;;;;;17.30;15.82;;;19.30;99.90;;;;;;4965728;28;20224;-80
2023/08/12 01:03:44;;;;;;;18.38;16.95;;;19.30;99.90;;;;;;4969901;28;20053;-80
2023/08/12 01:06:10;;;;;;;13.18;9.20;;;19.30;99.90;;;;;;4951664;28;20042;-80
2023/08/12 01:08:36;;;;;;;21.63;19.75;;;19.30;99.90;;;;;;4952366;28;20065;-80
2023/08/12 01:11:12;;;;;;;11.25;9.10;;;19.20;99.90;;;;;;4968420;28;20050;-80
2023/08/12 01:13:49;;;;;;;21.95;19.95;;;19.20;99.90;;;;;;4984156;28;20047;-79
2023/08/12 01:16:17;;;;;;;13.02;11.77;;;19.20;99.90;;;;;;4983771;28;20493;-80
2023/08/12 01:18:44;;;;;;;11.88;10.48;;;19.20;99.90;;;;;;4969016;28;20047;-80
2023/08/12 01:21:15;;;;;;;14.00;12.73;;;19.20;99.90;;;;;;4967773;28;20070;-80
2023/08/12 01:23:41;;;;;;;12.20;10.95;;;19.10;99.90;;;;;;4968205;28;20566;-80
2023/08/12 01:26:07;;;;;;;11.88;10.20;;;19.10;99.90;;;;;;4951829;28;20138;-80
2023/08/12 01:28:32;;;;;;;19.50;18.00;;;19.10;99.90;;;;;;4968206;28;20234;-80
2023/08/12 01:31:07;;;;;;;12.43;9.73;;;19.10;99.90;;;;;;4971568;28;20100;-80
2023/08/12 01:34:19;;;;;;;16.13;14.63;;;19.00;99.90;;;;;;4955101;28;20076;-80
2023/08/12 01:36:49;;;;;;;15.07;13.73;;;19.00;99.90;;;;;;4971953;28;20047;-80
2023/08/12 01:39:18;;;;;;;16.85;15.30;;;18.90;99.90;;;;;;4973266;28;20046;-80
2023/08/12 01:41:44;;;;;;;18.45;17.00;;;18.90;99.90;;;;;;4971879;28;20074;-80
2023/08/12 01:44:10;;;;;;;52.38;49.30;;;18.90;99.90;;;;;;4973027;28;20592;-80
2023/08/12 01:46:36;;;;;;;30.58;28.35;;;18.90;99.90;;;;;;4971795;28;20043;-80
2023/08/12 01:49:01;;;;;;;17.20;15.70;;;18.80;99.90;;;;;;4971209;28;20039;-80
2023/08/12 01:51:29;;;;;;;19.17;17.67;;;18.80;99.90;;;;;;4971279;28;20097;-80
2023/08/12 01:53:54;;;;;;;26.73;24.58;;;18.80;99.90;;;;;;4971733;28;20041;-80
2023/08/12 01:56:20;;;;;;;29.38;27.40;;;18.80;99.90;;;;;;4971340;28;20046;-80
2023/08/12 01:58:46;;;;;;;35.20;32.65;;;18.80;99.90;;;;;;4955348;28;20420;-80
2023/08/12 02:01:11;;;;;;;35.72;33.33;;;18.70;99.90;;;;;;4971419;28;20398;-80
2023/08/12 02:03:38;;;;;;;32.30;30.08;;;18.80;99.90;;;;;;4954658;28;20038;-80
2023/08/12 02:06:04;;;;;;;43.88;41.00;;;18.70;99.90;;;;;;4971703;28;20073;-80
2023/08/12 02:08:30;;;;;;;36.42;34.03;;;18.70;99.90;;;;;;4972839;28;20490;-80
2023/08/12 02:10:55;;;;;;;24.33;22.42;;;18.70;99.90;;;;;;4954817;28;20038;-80
2023/08/12 02:13:21;;;;;;;21.65;19.65;;;18.70;99.90;;;;;;4972449;28;20034;-80
2023/08/12 02:15:46;;;;;;;37.88;35.03;;;18.70;99.90;;;;;;4971241;28;20572;-80
2023/08/12 02:18:12;;;;;;;28.23;25.90;;;18.70;99.90;;;;;;4970496;28;20050;-81
2023/08/12 02:20:38;;;;;;;22.35;20.45;;;18.80;99.90;;;;;;4983883;28;20058;-80
2023/08/12 02:23:03;;;;;;;37.97;35.28;;;18.80;99.90;;;;;;4972367;28;20190;-80
2023/08/12 02:25:30;;;;;;;44.17;41.30;;;18.90;99.90;;;;;;4972378;28;20042;-81
2023/08/12 02:27:56;;;;;;;24.70;22.55;;;18.90;99.90;;;;;;4972220;28;20053;-80
2023/08/12 02:30:21;;;;;;;35.08;32.45;;;18.90;99.90;;;;;;4971049;28;20038;-80
2023/08/12 02:32:47;;;;;;;39.42;36.53;;;19.00;99.90;;;;;;4970497;28;20433;-80
2023/08/12 02:35:13;;;;;;;23.58;21.70;;;19.00;99.90;;;;;;4970718;28;20039;-80
2023/08/12 02:37:38;;;;;;;26.35;24.27;;;19.00;99.90;;;;;;4970705;28;20047;-80
2023/08/12 02:40:05;;;;;;;26.60;24.55;;;19.00;99.90;;;;;;4954981;28;20105;-80
2023/08/12 02:42:30;;;;;;;26.05;24.05;;;19.00;99.90;;;;;;4971439;28;20043;-80
2023/08/12 02:44:56;;;;;;;23.83;22.00;;;19.00;99.90;;;;;;4970548;28;20421;-80
2023/08/12 02:47:22;;;;;;;31.80;29.42;;;19.00;99.90;;;;;;4971696;28;20043;-80
2023/08/12 02:49:47;;;;;;;23.20;21.33;;;19.00;99.90;;;;;;4970775;28;20129;-80
2023/08/12 02:52:14;;;;;;;15.90;14.35;;;19.10;99.90;;;;;;4986850;28;20043;-80
2023/08/12 02:54:39;;;;;;;31.80;29.10;;;19.00;99.90;;;;;;4954234;28;20127;-80
2023/08/12 02:57:05;;;;;;;30.45;28.20;;;19.00;99.90;;;;;;4972076;28;20122;-80
2023/08/12 02:59:30;;;;;;;21.48;18.48;;;19.00;99.90;;;;;;4970350;28;20035;-80
2023/08/12 03:01:56;;;;;;;14.90;13.38;;;19.00;99.90;;;;;;4971028;28;20121;-80
2023/08/12 03:04:22;;;;;;;24.42;22.27;;;19.00;99.90;;;;;;4982067;28;20500;-80
2023/08/12 03:06:48;;;;;;;18.63;16.50;;;19.00;99.90;;;;;;4989874;28;20074;-80
2023/08/12 03:09:13;;;;;;;18.85;16.67;;;19.00;99.90;;;;;;4989565;28;20070;-80
2023/08/12 03:11:39;;;;;;;27.48;21.80;;;18.90;99.90;;;;;;4990995;28;20045;-80
2023/08/12 03:14:05;;;;;;;40.20;37.17;;;18.90;99.90;;;;;;4989296;28;20045;-80
2023/08/12 03:16:30;;;;;;;37.80;26.63;;;18.90;99.90;;;;;;4988938;28;20053;-80
2023/08/12 03:18:56;;;;;;;35.03;26.13;;;18.80;99.90;;;;;;4989959;28;20508;-80
2023/08/12 03:21:22;;;;;;;38.10;30.73;;;18.80;99.90;;;;;;4989209;28;20042;-80
2023/08/12 03:23:47;;;;;;;37.03;31.77;;;18.80;99.90;;;;;;4989378;28;20555;-80
2023/08/12 03:26:14;;;;;;;38.55;34.03;;;18.70;99.90;;;;;;4989179;28;20401;-80
2023/08/12 03:28:39;;;;;;;39.30;35.75;;;18.70;99.90;;;;;;4973059;28;20088;-80
2023/08/12 03:31:05;;;;;;;28.98;25.70;;;18.60;99.90;;;;;;4972435;28;20408;-80
2023/08/12 03:33:32;;;;;;;40.67;37.33;;;18.60;99.90;;;;;;4963268;28;20521;-80
2023/08/12 03:35:58;;;;;;;23.73;21.50;;;18.60;99.90;;;;;;4973650;28;20050;-80
2023/08/12 03:38:23;;;;;;;32.17;28.92;;;18.60;99.90;;;;;;4990007;28;20408;-80
2023/08/12 03:40:50;;;;;;;27.73;25.08;;;18.60;99.90;;;;;;4990396;28;20093;-80
2023/08/12 03:43:16;;;;;;;28.42;25.98;;;18.50;99.90;;;;;;4972808;28;20049;-80
2023/08/12 03:45:45;;;;;;;36.90;33.58;;;18.50;99.90;;;;;;4988588;28;20038;-80
2023/08/12 03:48:11;;;;;;;48.42;45.10;;;18.50;99.90;;;;;;4990077;28;20038;-80
2023/08/12 03:50:37;;;;;;;40.92;37.65;;;18.50;99.90;;;;;;4988686;28;20125;-80
2023/08/12 03:53:04;;;;;;;42.38;39.10;;;18.50;99.90;;;;;;4970077;28;20504;-80
2023/08/12 03:55:36;;;;;;;36.17;33.13;;;18.50;99.90;;;;;;4972948;28;20134;-80
2023/08/12 03:58:01;;;;;;;43.90;40.42;;;18.50;99.90;;;;;;4989346;28;20038;-80
2023/08/12 04:00:27;;;;;;;33.88;31.13;;;18.50;99.90;;;;;;4972508;28;20134;-80
2023/08/12 04:02:54;;;;;;;57.45;53.03;;;18.60;99.90;;;;;;4988885;28;20066;-80
2023/08/12 04:05:19;;;;;;;41.78;38.58;;;18.60;99.90;;;;;;4989687;28;20074;-79
2023/08/12 04:07:45;;;;;;;44.47;40.88;;;18.70;99.90;;;;;;4988088;28;20532;-80
2023/08/12 04:10:11;;;;;;;38.25;35.22;;;18.70;99.90;;;;;;4972294;28;20359;-81
2023/08/12 04:12:37;;;;;;;48.35;44.80;;;18.70;99.90;;;;;;4988066;28;20057;-80
2023/08/12 04:15:05;;;;;;;50.90;46.90;;;18.80;99.90;;;;;;4988260;28;20096;-80
2023/08/12 04:17:31;;;;;;;50.10;46.28;;;18.80;99.90;;;;;;4988199;28;20060;-80
2023/08/12 04:19:57;;;;;;;48.60;45.13;;;18.80;99.90;;;;;;4972041;28;20068;-80
2023/08/12 04:22:23;;;;;;;39.38;36.03;;;18.90;99.90;;;;;;4957398;28;20039;-80
2023/08/12 04:24:48;;;;;;;34.63;31.85;;;18.90;99.90;;;;;;4968707;28;20039;-80
2023/08/12 04:27:16;;;;;;;45.47;42.03;;;18.90;99.90;;;;;;4968307;28;20097;-80
2023/08/12 04:29:42;;;;;;;29.30;26.10;;;18.90;99.90;;;;;;4969036;28;20046;-80
2023/08/12 04:32:07;;;;;;;41.75;38.22;;;19.00;99.90;;;;;;4970064;28;20512;-80
2023/08/12 04:34:33;;;;;;;37.17;34.22;;;19.00;99.90;;;;;;4968598;28;20466;-80
2023/08/12 04:36:59;;;;;;;30.33;27.48;;;19.00;99.90;;;;;;4968383;28;20048;-80
2023/08/12 04:39:25;;;;;;;51.05;47.38;;;19.00;99.90;;;;;;4968950;28;20071;-80
2023/08/12 04:41:50;;;;;;;25.75;23.27;;;19.00;99.90;;;;;;4952018;28;20049;-80
2023/08/12 04:44:16;;;;;;;28.15;25.42;;;19.10;99.90;;;;;;4987617;28;20042;-81
2023/08/12 04:46:42;;;;;;;29.38;26.00;;;19.10;99.90;;;;;;4984712;28;20465;-80
2023/08/12 04:49:07;;;;;;;38.13;34.53;;;19.10;99.90;;;;;;4969452;28;20042;-80
2023/08/12 04:51:33;;;;;;;38.50;34.65;;;19.10;99.90;;;;;;4952087;28;20039;-81
2023/08/12 04:54:01;;;;;;;31.98;29.30;;;19.10;99.90;;;;;;4968329;28;20125;-80
2023/08/12 04:56:28;;;;;;;24.48;21.95;;;19.10;99.90;;;;;;4951609;28;20074;-79
2023/08/12 04:58:54;;;;;;;20.73;18.58;;;19.10;99.90;;;;;;4952536;28;20069;-80
2023/08/12 05:01:20;;;;;;;22.73;18.50;;;19.20;99.90;;;;;;4968257;28;20681;-79
2023/08/12 05:03:46;;;;;;;21.50;18.40;;;19.20;99.90;;;;;;4969704;28;20047;-80
2023/08/12 05:06:11;;;;;;;23.10;20.75;;;19.20;99.90;;;;;;4968344;28;20210;-80
2023/08/12 05:08:37;;;;;;;25.42;23.10;;;19.20;99.90;;;;;;4968237;28;20042;-80
2023/08/12 05:11:03;;;;;;;29.50;26.67;;;19.20;99.90;;;;;;4967876;28;20118;-79
2023/08/12 05:13:29;;;;;;;28.75;26.20;;;19.20;99.90;;;;;;4951962;28;20105;-80
2023/08/12 05:15:55;;;;;;;31.25;27.55;;;19.20;99.90;;;;;;4952366;28;20043;-80
2023/08/12 05:18:23;;;;;;;25.38;22.77;;;19.30;99.90;;;;;;4967784;28;20043;-79
2023/08/12 05:20:50;;;;;;;22.38;19.00;;;19.30;99.90;;;;;;4967924;28;20525;-80
2023/08/12 05:23:16;;;;;;;31.65;28.35;;;19.40;99.90;;;;;;4968323;28;20066;-80
2023/08/12 05:25:42;;;;;;;17.23;15.43;;;19.50;99.90;;;;;;4951526;28;20573;-80
2023/08/12 05:28:08;;;;;;;24.77;18.40;;;19.70;99.90;;;;;;4952126;28;20050;-80
2023/08/12 05:30:34;;;;;;;21.63;16.75;;;19.70;99.90;;;;;;4973506;28;20038;-80
2023/08/12 05:33:00;;;;;;;20.52;16.55;;;19.80;99.90;;;;;;4988735;28;20122;-80
2023/08/12 05:35:25;;;;;;;19.40;16.92;;;19.90;99.90;;;;;;4987455;28;20121;-80
2023/08/12 05:37:51;;;;;;;19.33;17.02;;;20.00;99.90;;;;;;4987464;28;20112;-79
2023/08/12 05:40:16;;;;;;;19.75;16.08;;;20.00;99.90;;;;;;4988334;28;20048;-80
2023/08/12 05:42:42;;;;;;;19.95;16.88;;;20.10;99.90;;;;;;4987063;28;20042;-80
2023/08/12 05:45:08;;;;;;;24.10;21.08;;;20.20;99.90;;;;;;4986631;28;20085;-80
2023/08/12 05:47:34;;;;;;;23.95;18.30;;;20.30;99.90;;;;;;4987228;28;20043;-80
2023/08/12 05:49:59;;;;;;;20.42;18.35;;;20.30;99.90;;;;;;4987207;28;20501;-80
2023/08/12 05:52:25;;;;;;;24.98;22.52;;;20.40;99.90;;;;;;4987155;28;20046;-80
2023/08/12 05:54:51;;;;;;;23.25;20.83;;;20.40;99.90;;;;;;4986890;28;20563;-80
2023/08/12 05:57:16;;;;;;;23.02;20.77;;;20.50;99.90;;;;;;4971088;28;20042;-80
2023/08/12 05:59:48;;;;;;;24.85;21.05;;;20.60;99.90;;;;;;4986962;28;20038;-82
2023/08/12 06:02:14;;;;;;;25.70;23.48;;;20.60;99.90;;;;;;4987179;28;20042;-80
2023/08/12 06:04:40;;;;;;;23.92;21.52;;;20.70;99.90;;;;;;4989576;28;20654;-81
2023/08/12 06:07:05;;;;;;;31.25;28.42;;;20.70;99.90;;;;;;5000425;28;20042;-82
2023/08/12 06:09:31;;;;;;;30.23;27.23;;;20.70;99.90;;;;;;4999184;28;20076;-81
2023/08/12 06:11:57;;;;;;;31.90;29.00;;;20.80;99.90;;;;;;4987163;28;20093;-80
2023/08/12 06:14:22;;;;;;;28.17;25.80;;;20.80;99.90;;;;;;4970938;28;20039;-81
2023/08/12 06:16:48;;;;;;;30.80;27.73;;;20.90;99.90;;;;;;4980757;28;20045;-82
2023/08/12 06:19:13;;;;;;;28.67;26.40;;;21.00;99.90;;;;;;5010907;28;20046;-81
2023/08/12 06:21:39;;;;;;;30.02;27.42;;;21.10;99.90;;;;;;4997899;28;20517;-81
2023/08/12 06:24:05;;;;;;;35.28;32.30;;;21.20;99.90;;;;;;4973796;28;20249;-81
2023/08/12 06:26:31;;;;;;;32.90;30.10;;;21.30;99.90;;;;;;4990335;28;20038;-80
2023/08/12 06:28:56;;;;;;;33.80;30.90;;;21.30;99.90;;;;;;4990155;28;20132;-81
2023/08/12 06:31:22;;;;;;;40.30;37.35;;;21.20;99.90;;;;;;4974202;28;20042;-81
2023/08/12 06:33:48;;;;;;;34.30;31.52;;;21.20;99.90;;;;;;5001727;28;20069;-81
2023/08/12 06:36:13;;;;;;;38.17;35.15;;;21.20;99.90;;;;;;4993160;28;20127;-81
2023/08/12 06:38:39;;;;;;;32.50;29.45;;;21.20;99.90;;;;;;5010668;28;20100;-81
2023/08/12 06:41:04;;;;;;;40.67;37.47;;;21.20;99.90;;;;;;5009689;28;20543;-81
2023/08/12 06:43:30;;;;;;;31.50;28.67;;;21.20;99.90;;;;;;4992575;28;20069;-80
2023/08/12 06:45:56;;;;;;;34.78;31.58;;;21.20;99.90;;;;;;5009858;28;20535;-81
2023/08/12 06:48:21;;;;;;;35.58;32.70;;;21.30;99.90;;;;;;5010769;28;20444;-80
2023/08/12 06:50:56;;;;;;;39.42;36.47;;;21.30;99.90;;;;;;5009518;28;20074;-80
2023/08/12 06:53:21;;;;;;;49.00;45.53;;;21.30;99.90;;;;;;5008806;28;20077;-80
2023/08/12 06:55:47;;;;;;;39.80;36.63;;;21.40;99.90;;;;;;5009577;28;20108;-80
2023/08/12 06:58:14;;;;;;;41.53;38.30;;;21.50;99.90;;;;;;4998756;28;20506;-80
2023/08/12 07:00:40;;;;;;;41.63;38.20;;;21.60;99.90;;;;;;4999585;28;20038;-81
2023/08/12 07:03:06;;;;;;;38.75;35.10;;;21.60;99.90;;;;;;4992745;28;20038;-81
2023/08/12 07:05:33;;;;;;;39.97;36.65;;;21.60;99.90;;;;;;4979876;28;20548;-83
2023/08/12 07:07:59;;;;;;;42.40;39.10;;;21.60;99.90;;;;;;4959729;28;20069;-82
2023/08/12 07:10:28;;;;;;;42.22;39.30;;;21.60;99.90;;;;;;4976082;28;20038;-82
2023/08/12 07:12:54;;;;;;;45.08;41.55;;;21.70;99.90;;;;;;4999524;28;20451;-80
2023/08/12 07:15:20;;;;;;;43.85;40.33;;;21.60;99.90;;;;;;5008901;28;20138;-80
2023/08/12 07:17:45;;;;;;;46.35;42.67;;;21.60;99.90;;;;;;5010344;28;20070;-80
2023/08/12 07:20:11;;;;;;;46.90;43.08;;;21.60;99.90;;;;;;5007850;28;20052;-79
2023/08/12 07:22:36;;;;;;;50.63;46.55;;;21.60;99.90;;;;;;5008173;28;20107;-80
2023/08/12 07:25:02;;;;;;;57.55;53.33;;;21.60;99.90;;;;;;4998239;28;20039;-80
2023/08/12 07:27:28;;;;;;;47.00;43.58;;;21.60;99.90;;;;;;4952727;28;20130;-81
2023/08/12 07:29:54;;;;;;;43.75;40.22;;;21.60;99.90;;;;;;4971216;28;20035;-80
2023/08/12 07:32:19;;;;;;;49.42;45.28;;;21.50;99.90;;;;;;4970843;28;20047;-81
2023/08/12 07:34:45;;;;;;;42.53;39.08;;;21.50;99.90;;;;;;4969644;28;20039;-80
2023/08/12 07:37:11;;;;;;;45.35;41.63;;;21.60;99.90;;;;;;4970409;28;20046;-81
2023/08/12 07:39:37;;;;;;;45.88;42.00;;;21.60;99.90;;;;;;4972525;28;20034;-81
2023/08/12 07:42:03;;;;;;;41.80;38.20;;;21.60;99.90;;;;;;4996303;28;20113;-81
2023/08/12 07:44:29;;;;;;;46.95;43.10;;;21.60;99.90;;;;;;5007732;28;20488;-81
2023/08/12 07:46:55;;;;;;;49.33;45.38;;;21.60;99.90;;;;;;4996246;28;20045;-81
2023/08/12 07:49:21;;;;;;;44.45;40.90;;;21.60;99.90;;;;;;4993589;28;20313;-80
2023/08/12 07:51:46;;;;;;;47.35;43.30;;;21.60;99.90;;;;;;5006192;28;20117;-80
2023/08/12 07:54:12;;;;;;;43.55;40.00;;;21.70;99.90;;;;;;4987943;28;20177;-82
2023/08/12 07:56:38;;;;;;;48.92;44.33;;;21.70;99.90;;;;;;4990945;28;20074;-80
2023/08/12 07:59:03;;;;;;;49.53;45.53;;;21.80;99.90;;;;;;4972526;28;20071;-80
2023/08/12 08:01:29;;;;;;;53.95;49.70;;;21.80;99.90;;;;;;4987450;28;20042;-81
2023/08/12 08:03:55;;;;;;;48.40;44.25;;;21.80;99.90;;;;;;4978503;28;20077;-81
2023/08/12 08:06:23;;;;;;;50.85;46.63;;;21.80;99.90;;;;;;5007288;28;20042;-80
2023/08/12 08:08:49;;;;;;;52.47;48.58;;;21.90;99.90;;;;;;5009297;28;20038;-80
2023/08/12 08:11:15;;;;;;;56.00;51.83;;;21.90;99.90;;;;;;5008174;28;20104;-80
2023/08/12 08:13:40;;;;;;;54.00;49.58;;;21.90;99.90;;;;;;5007769;28;20583;-79
2023/08/12 08:16:06;;;;;;;52.95;48.58;;;21.90;99.90;;;;;;5009139;28;20038;-79
2023/08/12 08:18:31;;;;;;;42.60;39.30;;;22.00;99.90;;;;;;5001913;28;20042;-80
2023/08/12 08:20:57;;;;;;;53.05;48.95;;;22.00;99.90;;;;;;4987645;28;20410;-80
2023/08/12 08:23:22;;;;;;;53.45;49.17;;;22.10;99.90;;;;;;4986598;28;20104;-80
2023/08/12 08:25:48;;;;;;;49.38;44.53;;;22.10;99.90;;;;;;4987179;28;20038;-81
2023/08/12 08:28:14;;;;;;;62.28;57.85;;;22.30;99.90;;;;;;4987721;28;20034;-80
2023/08/12 08:30:39;;;;;;;64.25;59.60;;;22.40;99.90;;;;;;4971469;28;20065;-80
2023/08/12 08:33:05;;;;;;;59.60;54.65;;;22.50;99.90;;;;;;4971644;28;20050;-80
2023/08/12 08:35:31;;;;;;;57.90;53.42;;;22.40;99.90;;;;;;5002495;28;20038;-80
2023/08/12 08:37:57;;;;;;;67.22;62.17;;;22.30;99.90;;;;;;4988930;28;20042;-80
2023/08/12 08:40:23;;;;;;;65.75;61.25;;;22.30;99.90;;;;;;4989009;28;20234;-80
2023/08/12 08:42:55;;;;;;;58.35;54.05;;;22.20;99.90;;;;;;4987737;28;20030;-80
2023/08/12 08:45:25;;;;;;;58.25;53.92;;;22.20;99.90;;;;;;4971590;28;20049;-80
2023/08/12 08:47:52;;;;;;;54.45;50.28;;;22.10;99.90;;;;;;4989422;28;20197;-80
2023/08/12 08:50:18;;;;;;;54.28;50.13;;;22.10;99.90;;;;;;5007111;28;20081;-80
2023/08/12 08:52:44;;;;;;;56.33;52.00;;;22.10;99.90;;;;;;5008517;28;20579;-80
2023/08/12 08:55:11;;;;;;;60.45;56.03;;;22.00;99.90;;;;;;5007079;28;20535;-80
2023/08/12 08:57:37;;;;;;;51.40;47.05;;;22.10;99.90;;;;;;5007383;28;20045;-80
2023/08/12 09:00:07;;;;;;;56.78;52.33;;;22.10;99.90;;;;;;4990974;28;20060;-80
2023/08/12 09:02:33;;;;;;;47.00;43.40;;;22.00;99.90;;;;;;5006295;28;20120;-80
2023/08/12 09:04:59;;;;;;;45.33;41.78;;;21.90;99.90;;;;;;5008569;28;20048;-80
2023/08/12 09:07:26;;;;;;;55.05;50.97;;;21.80;99.90;;;;;;5007015;28;20053;-80
2023/08/12 09:09:52;;;;;;;52.03;48.05;;;21.80;99.90;;;;;;5007060;28;20193;-79
2023/08/12 09:12:19;;;;;;;45.60;41.78;;;21.70;99.90;;;;;;5007312;28;20042;-80
2023/08/12 09:14:45;;;;;;;47.60;44.10;;;21.60;99.90;;;;;;5006867;28;20042;-79
2023/08/12 09:17:11;;;;;;;42.45;39.00;;;21.50;99.90;;;;;;5006303;28;20121;-80
2023/08/12 09:19:36;;;;;;;38.40;35.10;;;21.50;99.90;;;;;;4984474;28;20061;-80
2023/08/12 09:22:07;;;;;;;38.22;34.80;;;21.50;99.90;;;;;;4968024;28;20242;-80
2023/08/12 09:24:32;;;;;;;31.40;28.08;;;21.40;99.90;;;;;;4969699;28;20050;-80
2023/08/12 09:26:58;;;;;;;29.88;26.65;;;21.40;99.90;;;;;;4969243;28;20172;-80
2023/08/12 09:29:33;;;;;;;28.73;25.85;;;21.30;99.90;;;;;;4969325;28;20516;-80
2023/08/12 09:32:07;;;;;;;25.40;22.92;;;21.30;99.90;;;;;;4968254;28;20149;-80
2023/08/12 09:34:33;;;;;;;27.20;24.58;;;21.20;99.90;;;;;;4987207;28;20105;-80
2023/08/12 09:36:58;;;;;;;29.13;24.70;;;21.20;99.90;;;;;;4987502;28;20046;-80
2023/08/12 09:39:24;;;;;;;24.33;21.77;;;21.20;99.90;;;;;;4987145;28;20477;-80
2023/08/12 09:41:51;;;;;;;26.58;23.70;;;21.10;99.90;;;;;;4988750;28;20031;-80
2023/08/12 09:44:16;;;;;;;25.30;22.70;;;21.10;99.90;;;;;;4987186;28;20039;-80
2023/08/12 09:46:42;;;;;;;24.02;21.63;;;21.10;99.90;;;;;;4986592;28;20174;-80
2023/08/12 09:49:08;;;;;;;27.88;22.92;;;21.10;99.90;;;;;;5008234;28;20455;-80
2023/08/12 09:51:36;;;;;;;26.67;21.30;;;21.10;99.90;;;;;;4991743;28;20396;-80
2023/08/12 09:54:02;;;;;;;25.77;23.23;;;21.10;99.90;;;;;;5011717;28;20200;-80
2023/08/12 09:56:31;;;;;;;24.00;21.60;;;21.10;99.90;;;;;;5010467;28;20042;-80
2023/08/12 09:58:57;;;;;;;22.63;20.42;;;21.10;99.90;;;;;;5010299;28;20042;-81
2023/08/12 10:01:24;;;;;;;19.58;17.55;;;21.00;99.90;;;;;;5010054;28;20037;-81
2023/08/12 10:03:51;;;;;;;21.73;19.55;;;21.00;99.90;;;;;;5009960;28;20095;-81
2023/08/12 10:06:17;;;;;;;19.25;15.95;;;20.90;99.90;;;;;;5011546;28;20293;-81
2023/08/12 10:08:45;;;;;;;18.02;16.25;;;20.90;99.90;;;;;;5010283;28;20044;-81
2023/08/12 10:11:12;;;;;;;19.92;15.85;;;20.90;99.90;;;;;;5010356;28;20038;-80
2023/08/12 10:13:39;;;;;;;16.17;14.57;;;20.90;99.90;;;;;;5010034;28;20041;-81
2023/08/12 10:16:05;;;;;;;13.75;12.38;;;20.80;99.90;;;;;;5009548;28;20125;-81
2023/08/12 10:18:32;;;;;;;19.00;17.58;;;20.90;99.90;;;;;;4987896;28;20521;-80
2023/08/12 10:20:59;;;;;;;13.98;12.57;;;21.00;99.90;;;;;;4972176;28;20059;-81
2023/08/12 10:23:25;;;;;;;11.93;10.70;;;21.00;99.90;;;;;;4971971;28;20497;-81
2023/08/12 10:25:54;;;;;;;16.10;14.63;;;21.00;99.90;;;;;;4970756;28;20528;-80
2023/08/12 10:28:21;;;;;;;15.27;13.70;;;20.90;99.90;;;;;;4955065;28;20038;-81
2023/08/12 10:30:47;;;;;;;13.70;12.40;;;20.90;99.90;;;;;;4954199;28;20078;-80
2023/08/12 10:33:16;;;;;;;12.02;10.93;;;20.80;99.90;;;;;;5007085;28;20069;-80
2023/08/12 10:35:49;;;;;;;15.77;11.10;;;20.80;99.90;;;;;;5011365;28;20117;-80
2023/08/12 10:38:19;;;;;;;16.00;13.77;;;20.80;99.90;;;;;;5009587;28;20030;-80
2023/08/12 10:40:45;;;;;;;12.48;11.40;;;20.80;99.90;;;;;;4993662;28;20034;-80
2023/08/12 10:43:14;;;;;;;14.13;12.00;;;20.80;99.90;;;;;;4992910;28;20040;-80
2023/08/12 10:45:53;;;;;;;11.60;9.95;;;20.90;99.90;;;;;;5010473;28;20104;-80
2023/08/12 10:48:25;;;;;;;11.45;10.35;;;20.90;99.90;;;;;;4976125;28;20034;-80
2023/08/12 10:50:55;;;;;;;12.27;10.98;;;21.00;99.90;;;;;;4991092;28;20089;-80
2023/08/12 10:53:31;;;;;;;10.75;9.75;;;21.10;99.90;;;;;;4989857;28;20101;-80
2023/08/12 10:55:59;;;;;;;13.70;12.40;;;21.10;99.90;;;;;;4989754;28;20046;-80
2023/08/12 10:58:30;;;;;;;13.60;12.25;;;21.20;99.90;;;;;;4990890;28;20035;-80
2023/08/12 11:00:57;;;;;;;11.70;10.50;;;21.20;99.90;;;;;;4989925;28;20046;-81
2023/08/12 11:03:23;;;;;;;13.73;12.52;;;21.10;99.90;;;;;;5008600;28;20046;-81
2023/08/12 11:05:50;;;;;;;12.05;10.85;;;21.20;99.90;;;;;;5009826;28;20037;-81
2023/08/12 11:08:16;;;;;;;12.57;11.45;;;21.20;99.90;;;;;;5009456;28;20037;-81
2023/08/12 11:10:43;;;;;;;11.50;10.35;;;21.20;99.90;;;;;;5009283;28;20404;-81
2023/08/12 11:13:09;;;;;;;11.90;10.73;;;21.30;99.90;;;;;;5008475;28;20053;-81
2023/08/12 11:15:41;;;;;;;12.85;10.90;;;21.30;99.90;;;;;;5009102;28;20038;-81
2023/08/12 11:18:20;;;;;;;16.95;15.63;;;21.40;99.90;;;;;;4990358;28;20621;-81
2023/08/12 11:20:48;;;;;;;16.35;15.25;;;21.50;99.90;;;;;;4969792;28;20099;-80
2023/08/12 11:23:14;;;;;;;16.67;15.18;;;21.50;99.90;;;;;;4971524;28;20343;-81
2023/08/12 11:25:42;;;;;;;19.27;17.75;;;21.50;99.90;;;;;;4954064;28;20202;-80
2023/08/12 11:28:08;;;;;;;20.05;18.63;;;21.50;99.90;;;;;;4969472;28;20057;-81
2023/08/12 11:30:34;;;;;;;20.58;19.25;;;21.60;99.90;;;;;;4970845;28;20047;-81
2023/08/12 11:33:01;;;;;;;20.30;18.58;;;21.60;99.90;;;;;;5002176;28;20037;-81
2023/08/12 11:35:27;;;;;;;21.58;20.17;;;21.70;99.90;;;;;;4992273;28;20374;-81
2023/08/12 11:37:56;;;;;;;29.17;27.45;;;21.80;99.90;;;;;;4992486;28;20045;-81
2023/08/12 11:40:23;;;;;;;35.42;33.35;;;21.80;99.90;;;;;;5008567;28;20045;-80
2023/08/12 11:42:50;;;;;;;33.15;31.08;;;21.90;99.90;;;;;;5008054;28;20042;-81
2023/08/12 11:45:18;;;;;;;30.60;28.80;;;21.90;99.90;;;;;;5009791;28;20416;-82
2023/08/12 11:47:45;;;;;;;46.67;44.05;;;21.80;99.90;;;;;;4976157;28;20034;-81
2023/08/12 11:50:12;;;;;;;47.47;44.65;;;21.80;99.90;;;;;;4989244;28;20043;-81
2023/08/12 11:52:39;;;;;;;40.58;38.15;;;21.60;99.90;;;;;;4988780;28;20074;-81
2023/08/12 11:55:06;;;;;;;36.40;34.25;;;21.60;99.90;;;;;;4972727;28;20046;-81
2023/08/12 11:57:36;;;;;;;46.65;44.10;;;21.50;99.90;;;;;;4988664;28;20130;-81
2023/08/12 12:00:08;;;;;;;38.15;35.90;;;21.60;99.90;;;;;;4988914;28;20038;-81
2023/08/12 12:02:49;;;;;;;37.83;35.70;;;21.60;99.90;;;;;;4972997;28;20077;-81
2023/08/12 12:05:16;;;;;;;45.17;42.72;;;21.60;99.90;;;;;;4991390;28;20038;-81
2023/08/12 12:07:43;;;;;;;36.60;34.53;;;21.50;99.90;;;;;;4990400;28;20497;-82
2023/08/12 12:10:13;;;;;;;35.95;33.78;;;21.40;99.90;;;;;;4989907;28;20046;-82
2023/08/12 12:12:38;;;;;;;37.00;34.83;;;21.40;99.90;;;;;;4988233;28;20185;-81
2023/08/12 12:15:06;;;;;;;40.22;38.05;;;21.30;99.90;;;;;;4988988;28;20356;-81
2023/08/12 12:17:32;;;;;;;41.20;38.78;;;21.10;99.90;;;;;;4988180;28;20042;-81
2023/08/12 12:20:00;;;;;;;34.78;32.70;;;21.10;99.90;;;;;;4989527;28;20086;-81
2023/08/12 12:22:30;;;;;;;38.35;36.05;;;21.00;99.90;;;;;;4989318;28;20049;-81
2023/08/12 12:25:10;;;;;;;37.83;35.53;;;20.90;99.90;;;;;;4991990;28;20069;-81